contacte
inicio
- ACTUALIZADO a las 7:44
Cámara en vivo
A 5 metros de altura
Dirección Noreste
Datos del día de Hoy
Parameter                   Max   Max Time        Min   Min Time    Average
Wind Direction              360       1:20          5       1:20          0
Wind Speed                    6       0:27          0       0:00          1
Wind Gust                     6       0:27          0       0:00          3
In Humidity                  49       0:00         47       5:10         48
Humidity                     74       0:00         68       2:19         71
In Temp                    22.2       0:04       20.5       7:37       21.4
Out Temp                   15.6       0:00       11.2       7:40       13.3
Raw Barometer           1014.87       1:51    1013.92       4:30    1014.31
Total Rain               248.00       0:00     248.00       0:00     248.00




5/5/26
Time         Wind Dir   Wind Spd  Wind Gust     Hum In   Humidity    Temp In       Temp  Raw Barom   Tot Rain
                    °      km/hr      km/hr          %          %         °C         °C         mb         mm
0:00              285          0          2         49         74       22.2       15.5    1014.40     248.00
0:20              294          2          5         49         74       22.2       15.3    1014.36     248.00
0:40              325          3          6         49         70       22.1       15.3    1014.40     248.00
1:00              340          0          6         49         72       22.0       14.7    1014.70     248.00
1:20               19          2          3         49         71       21.9       14.2    1014.70     248.00
1:40              320          0          3         48         69       21.9       14.3    1014.63     248.00
2:00              320          0          3         48         70       21.8       13.9    1014.87     248.00
2:20              320          0          2         48         68       21.7       13.8    1014.63     248.00
2:40               58          0          0         48         70       21.7       13.3    1014.60     248.00
3:00              355          2          5         48         69       21.6       13.3    1014.50     248.00
3:20              355          0          3         48         69       21.5       13.3    1014.29     248.00
3:40              355          0          0         48         70       21.4       13.1    1014.16     248.00
4:00              355          0          0         48         70       21.4       13.2    1014.06     248.00
4:20              355          0          0         48         69       21.3       13.4    1014.09     248.00
4:40              355          0          3         48         69       21.2       13.2    1013.96     248.00
5:00              355          2          3         48         70       21.2       12.9    1014.02     248.00
5:20              355          2          3         48         72       21.1       12.4    1014.06     248.00
5:40              350          2          5         47         72       21.0       12.3    1014.06     248.00
6:00              346          0          6         47         72       20.9       12.3    1013.99     248.00
6:20              347          0          3         47         73       20.9       12.1    1013.96     248.00
6:40              347          0          3         47         73       20.8       12.0    1014.16     248.00
7:00              347          2          3         47         73       20.7       11.8    1014.19     248.00
7:20              345          2          3         47         73       20.6       11.6    1014.33     248.00
7:40              346          0          0         47         74       20.5       11.2    1014.43     248.00
Miembro de: